sensor_id;sensor_type;location;lat;lon;timestamp;temperature;humidity
44461;DHT22;30162;53.642;10.640;2023-02-28T00:00:09;6.00;84.20
44461;DHT22;30162;53.642;10.640;2023-02-28T00:02:38;6.00;83.90
44461;DHT22;30162;53.642;10.640;2023-02-28T00:05:04;5.90;83.50
44461;DHT22;30162;53.642;10.640;2023-02-28T00:07:30;5.70;82.90
44461;DHT22;30162;53.642;10.640;2023-02-28T00:09:56;5.70;83.50
44461;DHT22;30162;53.642;10.640;2023-02-28T00:12:22;5.60;83.10
44461;DHT22;30162;53.642;10.640;2023-02-28T00:14:48;5.30;82.70
44461;DHT22;30162;53.642;10.640;2023-02-28T00:17:13;5.30;83.70
44461;DHT22;30162;53.642;10.640;2023-02-28T00:19:39;5.30;83.50
44461;DHT22;30162;53.642;10.640;2023-02-28T00:22:04;5.20;83.40
44461;DHT22;30162;53.642;10.640;2023-02-28T00:24:30;5.30;83.40
44461;DHT22;30162;53.642;10.640;2023-02-28T00:26:56;5.30;83.10
44461;DHT22;30162;53.642;10.640;2023-02-28T00:29:21;5.50;82.40
44461;DHT22;30162;53.642;10.640;2023-02-28T00:31:47;5.30;82.20
44461;DHT22;30162;53.642;10.640;2023-02-28T00:34:12;5.10;82.80
44461;DHT22;30162;53.642;10.640;2023-02-28T00:36:37;5.00;82.90
44461;DHT22;30162;53.642;10.640;2023-02-28T00:39:03;5.00;83.40
44461;DHT22;30162;53.642;10.640;2023-02-28T00:41:29;5.10;83.60
44461;DHT22;30162;53.642;10.640;2023-02-28T00:43:54;5.20;83.20
44461;DHT22;30162;53.642;10.640;2023-02-28T00:46:19;5.10;82.30
44461;DHT22;30162;53.642;10.640;2023-02-28T00:48:45;4.80;83.70
44461;DHT22;30162;53.642;10.640;2023-02-28T00:51:10;4.70;83.80
44461;DHT22;30162;53.642;10.640;2023-02-28T00:53:36;4.40;85.60
44461;DHT22;30162;53.642;10.640;2023-02-28T00:56:02;4.40;85.50
44461;DHT22;30162;53.642;10.640;2023-02-28T00:58:27;4.00;85.10
44461;DHT22;30162;53.642;10.640;2023-02-28T01:00:53;3.70;88.10
44461;DHT22;30162;53.642;10.640;2023-02-28T01:03:19;4.10;87.70
44461;DHT22;30162;53.642;10.640;2023-02-28T01:05:45;4.00;87.40
44461;DHT22;30162;53.642;10.640;2023-02-28T01:08:11;3.90;87.70
44461;DHT22;30162;53.642;10.640;2023-02-28T01:10:36;4.10;87.60
44461;DHT22;30162;53.642;10.640;2023-02-28T01:13:02;4.00;87.70
44461;DHT22;30162;53.642;10.640;2023-02-28T01:15:28;3.80;87.90
44461;DHT22;30162;53.642;10.640;2023-02-28T01:17:53;3.70;88.30
44461;DHT22;30162;53.642;10.640;2023-02-28T01:20:19;3.70;88.70
44461;DHT22;30162;53.642;10.640;2023-02-28T01:22:44;3.70;88.80
44461;DHT22;30162;53.642;10.640;2023-02-28T01:25:09;3.50;89.00
44461;DHT22;30162;53.642;10.640;2023-02-28T01:27:35;3.60;89.10
44461;DHT22;30162;53.642;10.640;2023-02-28T01:30:01;3.90;88.60
44461;DHT22;30162;53.642;10.640;2023-02-28T01:32:27;4.00;87.60
44461;DHT22;30162;53.642;10.640;2023-02-28T01:34:52;3.70;87.90
44461;DHT22;30162;53.642;10.640;2023-02-28T01:37:17;3.70;88.40
44461;DHT22;30162;53.642;10.640;2023-02-28T01:39:43;3.60;88.10
44461;DHT22;30162;53.642;10.640;2023-02-28T01:42:09;3.60;88.10
44461;DHT22;30162;53.642;10.640;2023-02-28T01:47:18;3.80;87.70
44461;DHT22;30162;53.642;10.640;2023-02-28T01:49:44;3.90;87.10
44461;DHT22;30162;53.642;10.640;2023-02-28T01:52:10;3.90;87.00
44461;DHT22;30162;53.642;10.640;2023-02-28T01:54:43;3.70;87.60
44461;DHT22;30162;53.642;10.640;2023-02-28T01:57:11;3.70;87.00
44461;DHT22;30162;53.642;10.640;2023-02-28T01:59:41;3.50;87.20
44461;DHT22;30162;53.642;10.640;2023-02-28T02:02:12;3.60;88.20
44461;DHT22;30162;53.642;10.640;2023-02-28T02:04:42;3.60;87.90
44461;DHT22;30162;53.642;10.640;2023-02-28T02:07:11;3.60;87.90
44461;DHT22;30162;53.642;10.640;2023-02-28T02:09:38;3.70;87.70
44461;DHT22;30162;53.642;10.640;2023-02-28T02:12:20;3.70;87.00
44461;DHT22;30162;53.642;10.640;2023-02-28T02:17:19;3.60;87.50
44461;DHT22;30162;53.642;10.640;2023-02-28T02:22:41;3.70;87.60
44461;DHT22;30162;53.642;10.640;2023-02-28T02:25:22;3.60;86.90
44461;DHT22;30162;53.642;10.640;2023-02-28T02:41:03;3.40;88.70
44461;DHT22;30162;53.642;10.640;2023-02-28T02:43:32;3.40;88.00
44461;DHT22;30162;53.642;10.640;2023-02-28T02:46:01;3.40;87.70
44461;DHT22;30162;53.642;10.640;2023-02-28T02:48:30;3.30;87.90
44461;DHT22;30162;53.642;10.640;2023-02-28T02:50:57;3.20;88.10
44461;DHT22;30162;53.642;10.640;2023-02-28T02:53:25;3.20;89.00
44461;DHT22;30162;53.642;10.640;2023-02-28T02:55:53;3.20;88.10
44461;DHT22;30162;53.642;10.640;2023-02-28T02:58:22;3.20;88.30
44461;DHT22;30162;53.642;10.640;2023-02-28T03:00:50;3.30;88.00
44461;DHT22;30162;53.642;10.640;2023-02-28T03:03:16;3.20;87.90
44461;DHT22;30162;53.642;10.640;2023-02-28T03:05:47;3.20;88.10
44461;DHT22;30162;53.642;10.640;2023-02-28T03:08:13;3.20;88.20
44461;DHT22;30162;53.642;10.640;2023-02-28T03:10:41;3.20;88.20
44461;DHT22;30162;53.642;10.640;2023-02-28T03:15:45;3.00;88.30
44461;DHT22;30162;53.642;10.640;2023-02-28T03:18:22;3.10;88.90
44461;DHT22;30162;53.642;10.640;2023-02-28T03:23:59;3.10;88.60
44461;DHT22;30162;53.642;10.640;2023-02-28T03:26:18;3.10;88.70
44461;DHT22;30162;53.642;10.640;2023-02-28T03:28:56;3.20;88.40
44461;DHT22;30162;53.642;10.640;2023-02-28T03:34:05;3.00;88.20
44461;DHT22;30162;53.642;10.640;2023-02-28T03:36:33;3.10;88.70
44461;DHT22;30162;53.642;10.640;2023-02-28T03:39:09;3.00;89.10
44461;DHT22;30162;53.642;10.640;2023-02-28T03:41:45;3.00;88.90
44461;DHT22;30162;53.642;10.640;2023-02-28T03:46:59;2.80;89.20
44461;DHT22;30162;53.642;10.640;2023-02-28T03:49:32;2.80;89.50
44461;DHT22;30162;53.642;10.640;2023-02-28T03:52:01;2.80;89.30
44461;DHT22;30162;53.642;10.640;2023-02-28T03:54:28;2.70;89.70
44461;DHT22;30162;53.642;10.640;2023-02-28T03:57:02;2.60;90.00
44461;DHT22;30162;53.642;10.640;2023-02-28T03:59:37;2.60;90.10
44461;DHT22;30162;53.642;10.640;2023-02-28T04:02:03;2.70;90.10
44461;DHT22;30162;53.642;10.640;2023-02-28T04:04:28;2.70;90.20
44461;DHT22;30162;53.642;10.640;2023-02-28T04:07:00;2.70;89.80
44461;DHT22;30162;53.642;10.640;2023-02-28T04:09:26;2.70;90.00
44461;DHT22;30162;53.642;10.640;2023-02-28T04:11:52;2.70;90.00
44461;DHT22;30162;53.642;10.640;2023-02-28T04:14:17;2.60;90.10
44461;DHT22;30162;53.642;10.640;2023-02-28T04:16:43;2.70;90.20
44461;DHT22;30162;53.642;10.640;2023-02-28T04:19:10;2.70;90.00
44461;DHT22;30162;53.642;10.640;2023-02-28T04:21:37;2.70;89.70
44461;DHT22;30162;53.642;10.640;2023-02-28T04:24:04;2.60;89.90
44461;DHT22;30162;53.642;10.640;2023-02-28T04:26:30;2.60;90.00
44461;DHT22;30162;53.642;10.640;2023-02-28T04:28:56;2.60;90.20
44461;DHT22;30162;53.642;10.640;2023-02-28T04:31:21;2.60;90.00
44461;DHT22;30162;53.642;10.640;2023-02-28T04:33:47;2.60;90.10
44461;DHT22;30162;53.642;10.640;2023-02-28T04:36:12;2.60;90.00
44461;DHT22;30162;53.642;10.640;2023-02-28T04:38:39;2.60;90.10
44461;DHT22;30162;53.642;10.640;2023-02-28T04:41:05;2.60;89.90
44461;DHT22;30162;53.642;10.640;2023-02-28T04:43:31;2.50;90.00
44461;DHT22;30162;53.642;10.640;2023-02-28T04:45:57;2.40;90.10
44461;DHT22;30162;53.642;10.640;2023-02-28T04:48:23;2.40;90.10
44461;DHT22;30162;53.642;10.640;2023-02-28T04:50:50;2.50;90.20
44461;DHT22;30162;53.642;10.640;2023-02-28T04:53:15;2.50;90.20
44461;DHT22;30162;53.642;10.640;2023-02-28T04:55:41;2.40;90.20
44461;DHT22;30162;53.642;10.640;2023-02-28T04:58:06;2.40;90.30
44461;DHT22;30162;53.642;10.640;2023-02-28T05:00:32;2.50;90.40
44461;DHT22;30162;53.642;10.640;2023-02-28T05:02:57;2.40;90.10
44461;DHT22;30162;53.642;10.640;2023-02-28T05:05:22;2.30;90.20
44461;DHT22;30162;53.642;10.640;2023-02-28T05:07:48;2.20;90.30
44461;DHT22;30162;53.642;10.640;2023-02-28T05:10:14;2.20;90.50
44461;DHT22;30162;53.642;10.640;2023-02-28T05:12:39;2.20;90.70
44461;DHT22;30162;53.642;10.640;2023-02-28T05:15:04;2.20;90.60
44461;DHT22;30162;53.642;10.640;2023-02-28T05:17:30;2.20;90.30
44461;DHT22;30162;53.642;10.640;2023-02-28T05:19:56;2.20;90.50
44461;DHT22;30162;53.642;10.640;2023-02-28T05:22:21;2.10;90.50
44461;DHT22;30162;53.642;10.640;2023-02-28T05:24:47;2.10;90.50
44461;DHT22;30162;53.642;10.640;2023-02-28T05:27:12;2.10;90.60
44461;DHT22;30162;53.642;10.640;2023-02-28T05:29:38;2.10;90.60
44461;DHT22;30162;53.642;10.640;2023-02-28T05:32:10;2.10;90.60
44461;DHT22;30162;53.642;10.640;2023-02-28T05:34:37;2.10;90.50
44461;DHT22;30162;53.642;10.640;2023-02-28T05:37:03;2.10;90.60
44461;DHT22;30162;53.642;10.640;2023-02-28T05:39:29;2.00;90.60
44461;DHT22;30162;53.642;10.640;2023-02-28T05:41:54;2.00;90.60
44461;DHT22;30162;53.642;10.640;2023-02-28T05:44:20;2.10;90.50
44461;DHT22;30162;53.642;10.640;2023-02-28T05:46:45;2.00;90.50
44461;DHT22;30162;53.642;10.640;2023-02-28T05:49:11;1.90;90.80
44461;DHT22;30162;53.642;10.640;2023-02-28T05:51:36;1.90;90.90
44461;DHT22;30162;53.642;10.640;2023-02-28T05:54:05;1.90;91.00
44461;DHT22;30162;53.642;10.640;2023-02-28T05:56:30;1.90;90.90
44461;DHT22;30162;53.642;10.640;2023-02-28T06:01:35;1.90;90.70
44461;DHT22;30162;53.642;10.640;2023-02-28T06:04:02;1.80;90.90
44461;DHT22;30162;53.642;10.640;2023-02-28T06:06:28;1.80;91.20
44461;DHT22;30162;53.642;10.640;2023-02-28T06:08:54;1.70;91.20
44461;DHT22;30162;53.642;10.640;2023-02-28T06:11:20;1.80;91.30
44461;DHT22;30162;53.642;10.640;2023-02-28T06:13:45;1.80;91.30
44461;DHT22;30162;53.642;10.640;2023-02-28T06:16:11;1.90;91.00
44461;DHT22;30162;53.642;10.640;2023-02-28T06:18:37;2.00;90.80
44461;DHT22;30162;53.642;10.640;2023-02-28T06:21:02;1.90;90.70
44461;DHT22;30162;53.642;10.640;2023-02-28T06:23:28;2.00;90.50
44461;DHT22;30162;53.642;10.640;2023-02-28T06:25:53;2.10;90.60
44461;DHT22;30162;53.642;10.640;2023-02-28T06:28:22;2.10;90.30
44461;DHT22;30162;53.642;10.640;2023-02-28T06:30:48;2.10;90.30
44461;DHT22;30162;53.642;10.640;2023-02-28T06:33:13;2.10;90.30
44461;DHT22;30162;53.642;10.640;2023-02-28T06:35:39;2.00;90.10
44461;DHT22;30162;53.642;10.640;2023-02-28T06:38:04;1.90;90.30
44461;DHT22;30162;53.642;10.640;2023-02-28T06:40:30;1.90;90.40
44461;DHT22;30162;53.642;10.640;2023-02-28T06:42:59;1.90;90.70
44461;DHT22;30162;53.642;10.640;2023-02-28T06:45:24;1.90;91.00
44461;DHT22;30162;53.642;10.640;2023-02-28T06:47:51;1.90;90.90
44461;DHT22;30162;53.642;10.640;2023-02-28T06:50:17;1.90;90.90
44461;DHT22;30162;53.642;10.640;2023-02-28T06:52:45;1.90;91.00
44461;DHT22;30162;53.642;10.640;2023-02-28T06:55:11;1.90;91.00
44461;DHT22;30162;53.642;10.640;2023-02-28T06:57:36;2.00;91.10
44461;DHT22;30162;53.642;10.640;2023-02-28T07:00:06;2.00;91.00
44461;DHT22;30162;53.642;10.640;2023-02-28T07:02:33;2.10;91.00
44461;DHT22;30162;53.642;10.640;2023-02-28T07:04:58;2.10;90.90
44461;DHT22;30162;53.642;10.640;2023-02-28T07:07:24;2.10;90.90
44461;DHT22;30162;53.642;10.640;2023-02-28T07:09:49;2.10;90.90
44461;DHT22;30162;53.642;10.640;2023-02-28T07:12:14;2.10;90.80
44461;DHT22;30162;53.642;10.640;2023-02-28T07:14:40;2.10;91.00
44461;DHT22;30162;53.642;10.640;2023-02-28T07:17:08;2.10;91.00
44461;DHT22;30162;53.642;10.640;2023-02-28T07:19:34;2.10;91.20
44461;DHT22;30162;53.642;10.640;2023-02-28T07:21:59;2.30;91.20
44461;DHT22;30162;53.642;10.640;2023-02-28T07:24:26;2.40;91.00
44461;DHT22;30162;53.642;10.640;2023-02-28T07:26:53;2.40;91.00
44461;DHT22;30162;53.642;10.640;2023-02-28T07:29:19;2.40;90.90
44461;DHT22;30162;53.642;10.640;2023-02-28T07:31:44;2.40;91.10
44461;DHT22;30162;53.642;10.640;2023-02-28T07:34:11;2.40;91.10
44461;DHT22;30162;53.642;10.640;2023-02-28T07:36:37;2.60;91.00
44461;DHT22;30162;53.642;10.640;2023-02-28T07:39:02;2.70;90.80
44461;DHT22;30162;53.642;10.640;2023-02-28T07:41:29;2.70;90.80
44461;DHT22;30162;53.642;10.640;2023-02-28T07:43:58;2.70;91.00
44461;DHT22;30162;53.642;10.640;2023-02-28T07:46:25;2.90;91.00
44461;DHT22;30162;53.642;10.640;2023-02-28T07:48:50;3.00;90.80
44461;DHT22;30162;53.642;10.640;2023-02-28T07:51:16;3.00;91.00
44461;DHT22;30162;53.642;10.640;2023-02-28T07:53:42;3.10;91.10
44461;DHT22;30162;53.642;10.640;2023-02-28T07:56:07;3.30;91.10
44461;DHT22;30162;53.642;10.640;2023-02-28T07:58:33;3.50;91.10
44461;DHT22;30162;53.642;10.640;2023-02-28T08:01:04;3.90;91.10
44461;DHT22;30162;53.642;10.640;2023-02-28T08:03:30;4.90;90.20
44461;DHT22;30162;53.642;10.640;2023-02-28T08:05:55;5.70;87.40
44461;DHT22;30162;53.642;10.640;2023-02-28T08:08:21;6.30;84.10
44461;DHT22;30162;53.642;10.640;2023-02-28T08:10:46;6.90;82.80
44461;DHT22;30162;53.642;10.640;2023-02-28T08:13:12;7.90;80.10
44461;DHT22;30162;53.642;10.640;2023-02-28T08:15:37;8.70;76.90
44461;DHT22;30162;53.642;10.640;2023-02-28T08:18:03;8.90;76.60
44461;DHT22;30162;53.642;10.640;2023-02-28T08:20:28;9.70;74.70
44461;DHT22;30162;53.642;10.640;2023-02-28T08:22:54;10.00;72.50
44461;DHT22;30162;53.642;10.640;2023-02-28T08:25:19;9.90;73.70
44461;DHT22;30162;53.642;10.640;2023-02-28T08:27:45;10.10;72.70
44461;DHT22;30162;53.642;10.640;2023-02-28T08:30:11;10.50;72.10
44461;DHT22;30162;53.642;10.640;2023-02-28T08:32:36;11.00;71.10
44461;DHT22;30162;53.642;10.640;2023-02-28T08:35:02;11.50;69.60
44461;DHT22;30162;53.642;10.640;2023-02-28T08:37:28;11.80;68.20
44461;DHT22;30162;53.642;10.640;2023-02-28T08:39:53;12.20;67.80
44461;DHT22;30162;53.642;10.640;2023-02-28T08:42:19;12.40;66.80
44461;DHT22;30162;53.642;10.640;2023-02-28T08:44:44;11.40;67.10
44461;DHT22;30162;53.642;10.640;2023-02-28T08:47:10;10.70;71.00
44461;DHT22;30162;53.642;10.640;2023-02-28T08:49:36;11.30;69.30
44461;DHT22;30162;53.642;10.640;2023-02-28T08:52:02;12.10;67.50
44461;DHT22;30162;53.642;10.640;2023-02-28T08:54:28;12.40;67.60
44461;DHT22;30162;53.642;10.640;2023-02-28T08:56:55;13.00;66.20
44461;DHT22;30162;53.642;10.640;2023-02-28T08:59:21;13.30;65.50
44461;DHT22;30162;53.642;10.640;2023-02-28T09:01:46;13.90;64.00
44461;DHT22;30162;53.642;10.640;2023-02-28T09:04:12;14.30;62.40
44461;DHT22;30162;53.642;10.640;2023-02-28T09:06:37;14.30;62.00
44461;DHT22;30162;53.642;10.640;2023-02-28T09:09:03;14.50;63.10
44461;DHT22;30162;53.642;10.640;2023-02-28T09:11:31;13.90;63.10
44461;DHT22;30162;53.642;10.640;2023-02-28T09:13:57;14.30;62.50
44461;DHT22;30162;53.642;10.640;2023-02-28T09:16:23;14.30;61.30
44461;DHT22;30162;53.642;10.640;2023-02-28T09:18:49;14.50;61.70
44461;DHT22;30162;53.642;10.640;2023-02-28T09:21:16;15.50;60.40
44461;DHT22;30162;53.642;10.640;2023-02-28T09:23:43;15.70;58.70
44461;DHT22;30162;53.642;10.640;2023-02-28T09:26:12;15.00;59.90
44461;DHT22;30162;53.642;10.640;2023-02-28T09:28:38;15.10;60.20
44461;DHT22;30162;53.642;10.640;2023-02-28T09:31:04;15.20;59.80
44461;DHT22;30162;53.642;10.640;2023-02-28T09:33:30;15.10;57.90
44461;DHT22;30162;53.642;10.640;2023-02-28T09:35:59;15.40;57.50
44461;DHT22;30162;53.642;10.640;2023-02-28T09:38:26;16.10;57.20
44461;DHT22;30162;53.642;10.640;2023-02-28T09:40:57;15.60;55.30
44461;DHT22;30162;53.642;10.640;2023-02-28T09:43:26;16.20;55.00
44461;DHT22;30162;53.642;10.640;2023-02-28T09:46:14;16.20;53.00
44461;DHT22;30162;53.642;10.640;2023-02-28T09:48:44;15.60;54.80
44461;DHT22;30162;53.642;10.640;2023-02-28T09:51:23;16.20;54.60
44461;DHT22;30162;53.642;10.640;2023-02-28T09:53:52;16.10;55.10
44461;DHT22;30162;53.642;10.640;2023-02-28T09:56:23;16.50;54.30
44461;DHT22;30162;53.642;10.640;2023-02-28T09:59:00;16.70;54.30
44461;DHT22;30162;53.642;10.640;2023-02-28T10:04:50;16.70;53.20
44461;DHT22;30162;53.642;10.640;2023-02-28T10:06:53;16.50;52.50
44461;DHT22;30162;53.642;10.640;2023-02-28T10:11:47;15.60;53.50
44461;DHT22;30162;53.642;10.640;2023-02-28T10:16:43;14.60;55.20
44461;DHT22;30162;53.642;10.640;2023-02-28T10:19:13;14.40;55.70
44461;DHT22;30162;53.642;10.640;2023-02-28T10:21:55;14.10;55.90
44461;DHT22;30162;53.642;10.640;2023-02-28T10:27:00;13.90;56.20
44461;DHT22;30162;53.642;10.640;2023-02-28T10:29:27;14.00;56.50
44461;DHT22;30162;53.642;10.640;2023-02-28T10:31:53;14.00;55.40
44461;DHT22;30162;53.642;10.640;2023-02-28T10:34:18;14.00;57.40
44461;DHT22;30162;53.642;10.640;2023-02-28T10:36:44;14.10;54.80
44461;DHT22;30162;53.642;10.640;2023-02-28T10:41:53;13.90;55.60
44461;DHT22;30162;53.642;10.640;2023-02-28T10:44:21;14.00;54.80
44461;DHT22;30162;53.642;10.640;2023-02-28T10:46:47;14.10;55.40
44461;DHT22;30162;53.642;10.640;2023-02-28T10:49:15;14.00;55.30
44461;DHT22;30162;53.642;10.640;2023-02-28T10:51:42;14.10;55.70
44461;DHT22;30162;53.642;10.640;2023-02-28T10:54:41;14.30;53.50
44461;DHT22;30162;53.642;10.640;2023-02-28T10:57:20;14.30;53.80
44461;DHT22;30162;53.642;10.640;2023-02-28T10:59:45;14.70;53.30
44461;DHT22;30162;53.642;10.640;2023-02-28T11:05:32;14.50;53.70
44461;DHT22;30162;53.642;10.640;2023-02-28T11:08:06;14.00;52.40
44461;DHT22;30162;53.642;10.640;2023-02-28T11:10:35;13.50;52.40
44461;DHT22;30162;53.642;10.640;2023-02-28T11:13:01;13.10;52.00
44461;DHT22;30162;53.642;10.640;2023-02-28T11:15:28;12.60;52.80
44461;DHT22;30162;53.642;10.640;2023-02-28T11:17:55;12.90;52.70
44461;DHT22;30162;53.642;10.640;2023-02-28T11:20:22;13.20;54.10
44461;DHT22;30162;53.642;10.640;2023-02-28T11:22:48;13.10;54.90
44461;DHT22;30162;53.642;10.640;2023-02-28T11:27:50;13.70;54.30
44461;DHT22;30162;53.642;10.640;2023-02-28T11:32:53;13.90;54.40
44461;DHT22;30162;53.642;10.640;2023-02-28T11:35:24;13.90;53.20
44461;DHT22;30162;53.642;10.640;2023-02-28T11:37:51;13.90;53.60
44461;DHT22;30162;53.642;10.640;2023-02-28T11:40:31;13.90;54.60
44461;DHT22;30162;53.642;10.640;2023-02-28T11:48:20;14.20;52.20
44461;DHT22;30162;53.642;10.640;2023-02-28T11:55:49;14.10;54.30
44461;DHT22;30162;53.642;10.640;2023-02-28T12:03:26;13.90;54.80
44461;DHT22;30162;53.642;10.640;2023-02-28T12:21:30;13.40;53.30
44461;DHT22;30162;53.642;10.640;2023-02-28T12:23:59;12.90;52.70
44461;DHT22;30162;53.642;10.640;2023-02-28T12:29:29;13.10;51.60
44461;DHT22;30162;53.642;10.640;2023-02-28T12:31:49;12.50;52.20
44461;DHT22;30162;53.642;10.640;2023-02-28T12:34:19;12.80;54.10
44461;DHT22;30162;53.642;10.640;2023-02-28T12:36:46;12.80;54.20
44461;DHT22;30162;53.642;10.640;2023-02-28T12:41:48;13.10;54.00
44461;DHT22;30162;53.642;10.640;2023-02-28T12:46:42;13.00;53.20
44461;DHT22;30162;53.642;10.640;2023-02-28T12:49:25;13.00;52.90
44461;DHT22;30162;53.642;10.640;2023-02-28T12:51:53;13.00;51.40
44461;DHT22;30162;53.642;10.640;2023-02-28T12:59:25;12.50;52.10
44461;DHT22;30162;53.642;10.640;2023-02-28T13:02:09;12.70;53.10
44461;DHT22;30162;53.642;10.640;2023-02-28T13:10:18;13.00;51.30
44461;DHT22;30162;53.642;10.640;2023-02-28T13:12:47;12.70;52.10
44461;DHT22;30162;53.642;10.640;2023-02-28T13:15:17;12.60;53.10
44461;DHT22;30162;53.642;10.640;2023-02-28T13:17:53;12.10;51.00
44461;DHT22;30162;53.642;10.640;2023-02-28T13:20:25;11.70;53.60
44461;DHT22;30162;53.642;10.640;2023-02-28T13:22:52;11.50;53.20
44461;DHT22;30162;53.642;10.640;2023-02-28T13:27:59;11.80;53.80
44461;DHT22;30162;53.642;10.640;2023-02-28T13:35:48;12.30;52.10
44461;DHT22;30162;53.642;10.640;2023-02-28T13:38:34;12.10;52.70
44461;DHT22;30162;53.642;10.640;2023-02-28T13:42:00;12.10;52.60
44461;DHT22;30162;53.642;10.640;2023-02-28T13:44:02;12.20;53.30
44461;DHT22;30162;53.642;10.640;2023-02-28T13:46:28;12.20;53.60
44461;DHT22;30162;53.642;10.640;2023-02-28T13:48:54;12.20;54.60
44461;DHT22;30162;53.642;10.640;2023-02-28T13:51:42;12.20;54.80
44461;DHT22;30162;53.642;10.640;2023-02-28T13:54:16;12.20;54.90
44461;DHT22;30162;53.642;10.640;2023-02-28T13:56:51;12.10;55.20
44461;DHT22;30162;53.642;10.640;2023-02-28T14:07:03;12.10;55.00
44461;DHT22;30162;53.642;10.640;2023-02-28T14:09:30;12.10;54.10
44461;DHT22;30162;53.642;10.640;2023-02-28T14:11:57;12.20;54.40
44461;DHT22;30162;53.642;10.640;2023-02-28T14:17:04;12.10;53.20
44461;DHT22;30162;53.642;10.640;2023-02-28T14:19:30;11.90;53.60
44461;DHT22;30162;53.642;10.640;2023-02-28T14:30:24;12.30;53.00
44461;DHT22;30162;53.642;10.640;2023-02-28T14:34:53;12.30;54.30
44461;DHT22;30162;53.642;10.640;2023-02-28T14:37:20;12.20;52.60
44461;DHT22;30162;53.642;10.640;2023-02-28T14:39:49;12.10;53.20
44461;DHT22;30162;53.642;10.640;2023-02-28T14:42:34;12.10;54.20
44461;DHT22;30162;53.642;10.640;2023-02-28T14:45:00;12.20;54.00
44461;DHT22;30162;53.642;10.640;2023-02-28T14:47:30;12.20;53.50
44461;DHT22;30162;53.642;10.640;2023-02-28T14:49:56;12.00;53.20
44461;DHT22;30162;53.642;10.640;2023-02-28T14:52:23;11.90;52.00
44461;DHT22;30162;53.642;10.640;2023-02-28T14:54:53;11.70;49.90
44461;DHT22;30162;53.642;10.640;2023-02-28T14:57:23;11.60;49.90
44461;DHT22;30162;53.642;10.640;2023-02-28T14:59:56;11.50;48.40
44461;DHT22;30162;53.642;10.640;2023-02-28T15:02:23;11.50;47.90
44461;DHT22;30162;53.642;10.640;2023-02-28T15:04:53;11.40;48.20
44461;DHT22;30162;53.642;10.640;2023-02-28T15:07:19;11.30;49.30
44461;DHT22;30162;53.642;10.640;2023-02-28T15:09:45;11.20;50.60
44461;DHT22;30162;53.642;10.640;2023-02-28T15:12:13;11.30;49.00
44461;DHT22;30162;53.642;10.640;2023-02-28T15:14:39;11.20;50.50
44461;DHT22;30162;53.642;10.640;2023-02-28T15:17:08;11.10;49.60
44461;DHT22;30162;53.642;10.640;2023-02-28T15:19:37;11.10;49.90
44461;DHT22;30162;53.642;10.640;2023-02-28T15:22:12;11.10;51.40
44461;DHT22;30162;53.642;10.640;2023-02-28T15:24:44;10.90;50.40
44461;DHT22;30162;53.642;10.640;2023-02-28T15:27:30;10.90;50.30
44461;DHT22;30162;53.642;10.640;2023-02-28T15:29:58;10.70;51.80
44461;DHT22;30162;53.642;10.640;2023-02-28T15:32:34;10.60;54.90
44461;DHT22;30162;53.642;10.640;2023-02-28T15:35:17;10.50;54.10
44461;DHT22;30162;53.642;10.640;2023-02-28T15:40:25;10.30;54.80
44461;DHT22;30162;53.642;10.640;2023-02-28T15:42:58;10.30;53.80
44461;DHT22;30162;53.642;10.640;2023-02-28T15:45:28;10.20;54.80
44461;DHT22;30162;53.642;10.640;2023-02-28T15:47:53;10.20;55.40
44461;DHT22;30162;53.642;10.640;2023-02-28T15:50:19;10.10;55.20
44461;DHT22;30162;53.642;10.640;2023-02-28T15:52:45;9.90;55.30
44461;DHT22;30162;53.642;10.640;2023-02-28T15:55:20;9.80;56.00
44461;DHT22;30162;53.642;10.640;2023-02-28T15:57:50;9.80;56.50
44461;DHT22;30162;53.642;10.640;2023-02-28T16:00:21;9.80;56.90
44461;DHT22;30162;53.642;10.640;2023-02-28T16:02:47;9.60;56.30
44461;DHT22;30162;53.642;10.640;2023-02-28T16:05:18;9.50;56.60
44461;DHT22;30162;53.642;10.640;2023-02-28T16:07:45;9.40;56.10
44461;DHT22;30162;53.642;10.640;2023-02-28T16:10:13;9.30;57.10
44461;DHT22;30162;53.642;10.640;2023-02-28T16:12:42;9.20;57.00
44461;DHT22;30162;53.642;10.640;2023-02-28T16:15:29;8.90;55.70
44461;DHT22;30162;53.642;10.640;2023-02-28T16:17:54;8.70;55.40
44461;DHT22;30162;53.642;10.640;2023-02-28T16:20:26;8.80;57.00
44461;DHT22;30162;53.642;10.640;2023-02-28T16:22:52;8.80;56.10
44461;DHT22;30162;53.642;10.640;2023-02-28T16:25:23;8.60;56.00
44461;DHT22;30162;53.642;10.640;2023-02-28T16:27:49;8.60;56.10
44461;DHT22;30162;53.642;10.640;2023-02-28T16:30:19;8.40;56.80
44461;DHT22;30162;53.642;10.640;2023-02-28T16:32:45;8.40;57.10
44461;DHT22;30162;53.642;10.640;2023-02-28T16:35:11;8.40;56.90
44461;DHT22;30162;53.642;10.640;2023-02-28T16:37:37;8.30;56.70
44461;DHT22;30162;53.642;10.640;2023-02-28T16:40:03;8.10;57.00
44461;DHT22;30162;53.642;10.640;2023-02-28T16:42:28;8.30;57.00
44461;DHT22;30162;53.642;10.640;2023-02-28T16:44:54;8.30;57.20
44461;DHT22;30162;53.642;10.640;2023-02-28T16:47:19;8.30;57.50
44461;DHT22;30162;53.642;10.640;2023-02-28T16:49:45;8.10;58.20
44461;DHT22;30162;53.642;10.640;2023-02-28T16:52:12;8.20;58.40
44461;DHT22;30162;53.642;10.640;2023-02-28T16:54:38;8.10;58.20
44461;DHT22;30162;53.642;10.640;2023-02-28T16:57:04;7.90;58.20
44461;DHT22;30162;53.642;10.640;2023-02-28T16:59:29;7.80;58.90
44461;DHT22;30162;53.642;10.640;2023-02-28T17:01:55;7.80;59.20
44461;DHT22;30162;53.642;10.640;2023-02-28T17:04:23;7.80;59.70
44461;DHT22;30162;53.642;10.640;2023-02-28T17:06:49;7.70;59.90
44461;DHT22;30162;53.642;10.640;2023-02-28T17:09:22;7.70;60.00
44461;DHT22;30162;53.642;10.640;2023-02-28T17:11:48;7.60;60.20
44461;DHT22;30162;53.642;10.640;2023-02-28T17:14:14;7.40;60.50
44461;DHT22;30162;53.642;10.640;2023-02-28T17:16:40;7.20;61.10
44461;DHT22;30162;53.642;10.640;2023-02-28T17:19:10;7.20;61.00
44461;DHT22;30162;53.642;10.640;2023-02-28T17:21:36;7.20;61.30
44461;DHT22;30162;53.642;10.640;2023-02-28T17:24:02;7.10;61.50
44461;DHT22;30162;53.642;10.640;2023-02-28T17:26:27;7.00;61.90
44461;DHT22;30162;53.642;10.640;2023-02-28T17:28:54;6.80;61.90
44461;DHT22;30162;53.642;10.640;2023-02-28T17:31:23;6.70;62.20
44461;DHT22;30162;53.642;10.640;2023-02-28T17:33:48;6.60;62.30
44461;DHT22;30162;53.642;10.640;2023-02-28T17:36:15;6.70;62.40
44461;DHT22;30162;53.642;10.640;2023-02-28T17:38:41;6.70;62.30
44461;DHT22;30162;53.642;10.640;2023-02-28T17:41:08;6.60;62.50
44461;DHT22;30162;53.642;10.640;2023-02-28T17:43:34;6.70;62.70
44461;DHT22;30162;53.642;10.640;2023-02-28T17:46:00;6.70;62.60